sensor_id;sensor_type;location;lat;lon;timestamp;P1;durP1;ratioP1;P2;durP2;ratioP2
74469;SDS011;62918;55.706;37.816;2023-06-05T00:00:26;5.45;;;2.95;;
74469;SDS011;62918;55.706;37.816;2023-06-05T00:00:58;8.77;;;3.00;;
74469;SDS011;62918;55.706;37.816;2023-06-05T00:01:30;6.70;;;2.80;;
74469;SDS011;62918;55.706;37.816;2023-06-05T00:02:04;7.57;;;2.92;;
74469;SDS011;62918;55.706;37.816;2023-06-05T00:02:34;7.13;;;2.97;;
74469;SDS011;62918;55.706;37.816;2023-06-05T00:03:05;4.55;;;2.33;;
74469;SDS011;62918;55.706;37.816;2023-06-05T00:03:36;5.97;;;2.45;;
74469;SDS011;62918;55.706;37.816;2023-06-05T00:04:07;5.90;;;2.67;;
74469;SDS011;62918;55.706;37.816;2023-06-05T00:04:37;5.57;;;2.92;;
74469;SDS011;62918;55.706;37.816;2023-06-05T00:05:09;6.53;;;2.83;;
74469;SDS011;62918;55.706;37.816;2023-06-05T00:05:40;6.07;;;2.88;;
74469;SDS011;62918;55.706;37.816;2023-06-05T00:06:11;6.18;;;3.15;;
74469;SDS011;62918;55.706;37.816;2023-06-05T00:06:42;6.18;;;3.17;;
74469;SDS011;62918;55.706;37.816;2023-06-05T00:07:12;5.45;;;3.15;;
74469;SDS011;62918;55.706;37.816;2023-06-05T00:07:43;4.45;;;3.10;;
74469;SDS011;62918;55.706;37.816;2023-06-05T00:08:14;6.82;;;3.10;;
74469;SDS011;62918;55.706;37.816;2023-06-05T00:08:45;4.82;;;2.70;;
74469;SDS011;62918;55.706;37.816;2023-06-05T00:09:16;6.70;;;3.35;;
74469;SDS011;62918;55.706;37.816;2023-06-05T00:09:47;6.18;;;3.00;;
74469;SDS011;62918;55.706;37.816;2023-06-05T00:10:17;5.35;;;2.83;;
74469;SDS011;62918;55.706;37.816;2023-06-05T00:10:48;5.10;;;2.30;;
74469;SDS011;62918;55.706;37.816;2023-06-05T00:11:19;5.38;;;2.80;;
74469;SDS011;62918;55.706;37.816;2023-06-05T00:11:50;4.22;;;2.83;;
74469;SDS011;62918;55.706;37.816;2023-06-05T00:12:20;3.80;;;2.85;;
74469;SDS011;62918;55.706;37.816;2023-06-05T00:12:51;5.90;;;2.72;;
74469;SDS011;62918;55.706;37.816;2023-06-05T00:13:21;5.97;;;3.33;;
74469;SDS011;62918;55.706;37.816;2023-06-05T00:13:52;5.32;;;2.28;;
74469;SDS011;62918;55.706;37.816;2023-06-05T00:14:23;6.30;;;2.40;;
74469;SDS011;62918;55.706;37.816;2023-06-05T00:14:53;8.82;;;2.95;;
74469;SDS011;62918;55.706;37.816;2023-06-05T00:15:24;5.25;;;2.70;;
74469;SDS011;62918;55.706;37.816;2023-06-05T00:15:55;6.85;;;3.13;;
74469;SDS011;62918;55.706;37.816;2023-06-05T00:16:26;9.30;;;2.63;;
74469;SDS011;62918;55.706;37.816;2023-06-05T00:16:57;7.63;;;2.97;;
74469;SDS011;62918;55.706;37.816;2023-06-05T00:17:27;5.95;;;2.83;;
74469;SDS011;62918;55.706;37.816;2023-06-05T00:18:00;4.03;;;2.78;;
74469;SDS011;62918;55.706;37.816;2023-06-05T00:18:31;6.55;;;3.03;;
74469;SDS011;62918;55.706;37.816;2023-06-05T00:19:02;6.63;;;3.10;;
74469;SDS011;62918;55.706;37.816;2023-06-05T00:19:33;7.80;;;3.10;;
74469;SDS011;62918;55.706;37.816;2023-06-05T00:20:05;5.28;;;3.05;;
74469;SDS011;62918;55.706;37.816;2023-06-05T00:20:39;7.30;;;2.95;;
74469;SDS011;62918;55.706;37.816;2023-06-05T00:21:10;6.70;;;2.83;;
74469;SDS011;62918;55.706;37.816;2023-06-05T00:22:13;6.05;;;3.00;;
74469;SDS011;62918;55.706;37.816;2023-06-05T00:22:43;8.52;;;3.17;;
74469;SDS011;62918;55.706;37.816;2023-06-05T00:23:14;4.55;;;2.78;;
74469;SDS011;62918;55.706;37.816;2023-06-05T00:23:45;6.00;;;2.85;;
74469;SDS011;62918;55.706;37.816;2023-06-05T00:24:15;4.97;;;2.90;;
74469;SDS011;62918;55.706;37.816;2023-06-05T00:24:46;9.88;;;2.80;;
74469;SDS011;62918;55.706;37.816;2023-06-05T00:25:17;6.25;;;2.80;;
74469;SDS011;62918;55.706;37.816;2023-06-05T00:25:47;6.20;;;3.03;;
74469;SDS011;62918;55.706;37.816;2023-06-05T00:26:18;6.15;;;3.53;;
74469;SDS011;62918;55.706;37.816;2023-06-05T00:26:49;5.50;;;2.83;;
74469;SDS011;62918;55.706;37.816;2023-06-05T00:27:19;5.05;;;2.83;;
74469;SDS011;62918;55.706;37.816;2023-06-05T00:27:50;5.10;;;2.78;;
74469;SDS011;62918;55.706;37.816;2023-06-05T00:28:20;5.97;;;2.60;;
74469;SDS011;62918;55.706;37.816;2023-06-05T00:28:51;5.88;;;3.47;;
74469;SDS011;62918;55.706;37.816;2023-06-05T00:29:21;5.60;;;2.70;;
74469;SDS011;62918;55.706;37.816;2023-06-05T00:29:52;7.65;;;3.30;;
74469;SDS011;62918;55.706;37.816;2023-06-05T00:30:23;6.50;;;3.05;;
74469;SDS011;62918;55.706;37.816;2023-06-05T00:30:53;5.90;;;3.63;;
74469;SDS011;62918;55.706;37.816;2023-06-05T00:31:24;5.00;;;2.75;;
74469;SDS011;62918;55.706;37.816;2023-06-05T00:31:55;8.48;;;2.90;;
74469;SDS011;62918;55.706;37.816;2023-06-05T00:32:25;7.47;;;3.40;;
74469;SDS011;62918;55.706;37.816;2023-06-05T00:32:56;4.68;;;2.72;;
74469;SDS011;62918;55.706;37.816;2023-06-05T00:33:27;7.05;;;3.00;;
74469;SDS011;62918;55.706;37.816;2023-06-05T00:34:00;7.18;;;2.80;;
74469;SDS011;62918;55.706;37.816;2023-06-05T00:34:30;5.18;;;2.70;;
74469;SDS011;62918;55.706;37.816;2023-06-05T00:35:01;4.70;;;2.35;;
74469;SDS011;62918;55.706;37.816;2023-06-05T00:35:32;5.22;;;2.42;;
74469;SDS011;62918;55.706;37.816;2023-06-05T00:36:03;7.75;;;2.92;;
74469;SDS011;62918;55.706;37.816;2023-06-05T00:36:33;6.47;;;2.78;;
74469;SDS011;62918;55.706;37.816;2023-06-05T00:37:07;6.18;;;2.80;;
74469;SDS011;62918;55.706;37.816;2023-06-05T00:37:38;4.90;;;2.50;;
74469;SDS011;62918;55.706;37.816;2023-06-05T00:38:09;4.55;;;2.17;;
74469;SDS011;62918;55.706;37.816;2023-06-05T00:38:40;4.97;;;2.50;;
74469;SDS011;62918;55.706;37.816;2023-06-05T00:39:11;5.50;;;2.70;;
74469;SDS011;62918;55.706;37.816;2023-06-05T00:39:41;4.93;;;2.83;;
74469;SDS011;62918;55.706;37.816;2023-06-05T00:40:12;5.00;;;2.65;;
74469;SDS011;62918;55.706;37.816;2023-06-05T00:40:43;8.57;;;2.72;;
74469;SDS011;62918;55.706;37.816;2023-06-05T00:41:13;5.72;;;2.70;;
74469;SDS011;62918;55.706;37.816;2023-06-05T00:41:44;7.22;;;2.53;;
74469;SDS011;62918;55.706;37.816;2023-06-05T00:42:15;5.80;;;2.40;;
74469;SDS011;62918;55.706;37.816;2023-06-05T00:42:46;4.28;;;2.03;;
74469;SDS011;62918;55.706;37.816;2023-06-05T00:43:16;6.75;;;2.55;;
74469;SDS011;62918;55.706;37.816;2023-06-05T00:43:47;4.75;;;2.95;;
74469;SDS011;62918;55.706;37.816;2023-06-05T00:44:18;6.82;;;2.47;;
74469;SDS011;62918;55.706;37.816;2023-06-05T00:44:48;4.97;;;1.75;;
74469;SDS011;62918;55.706;37.816;2023-06-05T00:45:19;5.10;;;2.47;;
74469;SDS011;62918;55.706;37.816;2023-06-05T00:45:50;5.80;;;2.80;;
74469;SDS011;62918;55.706;37.816;2023-06-05T00:46:26;6.15;;;2.40;;
74469;SDS011;62918;55.706;37.816;2023-06-05T00:46:57;5.65;;;2.63;;
74469;SDS011;62918;55.706;37.816;2023-06-05T00:47:29;4.80;;;2.65;;
74469;SDS011;62918;55.706;37.816;2023-06-05T00:48:00;4.28;;;2.65;;
74469;SDS011;62918;55.706;37.816;2023-06-05T00:48:31;8.30;;;2.95;;
74469;SDS011;62918;55.706;37.816;2023-06-05T00:49:03;4.20;;;3.13;;
74469;SDS011;62918;55.706;37.816;2023-06-05T00:49:34;4.35;;;2.80;;
74469;SDS011;62918;55.706;37.816;2023-06-05T00:50:06;5.20;;;2.53;;
74469;SDS011;62918;55.706;37.816;2023-06-05T00:50:38;6.20;;;2.55;;
74469;SDS011;62918;55.706;37.816;2023-06-05T00:51:09;6.45;;;2.75;;
74469;SDS011;62918;55.706;37.816;2023-06-05T00:51:44;9.00;;;2.70;;
74469;SDS011;62918;55.706;37.816;2023-06-05T00:52:15;5.00;;;3.55;;
74469;SDS011;62918;55.706;37.816;2023-06-05T00:52:47;5.25;;;3.00;;
74469;SDS011;62918;55.706;37.816;2023-06-05T00:53:18;5.10;;;2.50;;
74469;SDS011;62918;55.706;37.816;2023-06-05T00:53:49;4.18;;;2.40;;
74469;SDS011;62918;55.706;37.816;2023-06-05T00:54:20;5.32;;;2.35;;
74469;SDS011;62918;55.706;37.816;2023-06-05T00:54:51;7.00;;;2.53;;
74469;SDS011;62918;55.706;37.816;2023-06-05T00:55:21;5.15;;;2.45;;
74469;SDS011;62918;55.706;37.816;2023-06-05T00:55:52;4.70;;;2.60;;
74469;SDS011;62918;55.706;37.816;2023-06-05T00:56:23;5.57;;;2.08;;
74469;SDS011;62918;55.706;37.816;2023-06-05T00:56:54;4.20;;;2.40;;
74469;SDS011;62918;55.706;37.816;2023-06-05T00:57:26;8.32;;;3.25;;
74469;SDS011;62918;55.706;37.816;2023-06-05T00:57:58;8.88;;;2.63;;
74469;SDS011;62918;55.706;37.816;2023-06-05T00:58:30;5.05;;;2.35;;
74469;SDS011;62918;55.706;37.816;2023-06-05T00:59:02;6.35;;;2.17;;
74469;SDS011;62918;55.706;37.816;2023-06-05T00:59:33;5.47;;;2.60;;
74469;SDS011;62918;55.706;37.816;2023-06-05T01:00:08;3.53;;;2.33;;
74469;SDS011;62918;55.706;37.816;2023-06-05T01:00:42;5.65;;;2.20;;
74469;SDS011;62918;55.706;37.816;2023-06-05T01:01:13;3.15;;;2.42;;
74469;SDS011;62918;55.706;37.816;2023-06-05T01:01:45;6.95;;;2.70;;
74469;SDS011;62918;55.706;37.816;2023-06-05T01:02:15;4.50;;;2.35;;
74469;SDS011;62918;55.706;37.816;2023-06-05T01:02:46;4.95;;;2.63;;
74469;SDS011;62918;55.706;37.816;2023-06-05T01:03:17;8.40;;;2.50;;
74469;SDS011;62918;55.706;37.816;2023-06-05T01:03:50;5.72;;;2.40;;
74469;SDS011;62918;55.706;37.816;2023-06-05T01:04:21;4.57;;;2.60;;
74469;SDS011;62918;55.706;37.816;2023-06-05T01:05:26;6.03;;;2.53;;
74469;SDS011;62918;55.706;37.816;2023-06-05T01:05:57;5.68;;;2.33;;
74469;SDS011;62918;55.706;37.816;2023-06-05T01:06:33;5.07;;;2.92;;
74469;SDS011;62918;55.706;37.816;2023-06-05T01:07:05;8.80;;;2.42;;
74469;SDS011;62918;55.706;37.816;2023-06-05T01:07:37;5.03;;;2.45;;
74469;SDS011;62918;55.706;37.816;2023-06-05T01:08:11;5.13;;;2.40;;
74469;SDS011;62918;55.706;37.816;2023-06-05T01:08:42;7.20;;;2.38;;
74469;SDS011;62918;55.706;37.816;2023-06-05T01:09:15;5.72;;;2.50;;
74469;SDS011;62918;55.706;37.816;2023-06-05T01:09:45;3.88;;;2.80;;
74469;SDS011;62918;55.706;37.816;2023-06-05T01:10:16;5.28;;;2.15;;
74469;SDS011;62918;55.706;37.816;2023-06-05T01:10:47;6.18;;;2.65;;
74469;SDS011;62918;55.706;37.816;2023-06-05T01:11:20;7.40;;;2.45;;
74469;SDS011;62918;55.706;37.816;2023-06-05T01:13:22;6.68;;;2.65;;
74469;SDS011;62918;55.706;37.816;2023-06-05T01:14:15;5.60;;;2.13;;
74469;SDS011;62918;55.706;37.816;2023-06-05T01:14:50;7.43;;;2.08;;
74469;SDS011;62918;55.706;37.816;2023-06-05T01:15:29;6.53;;;2.70;;
74469;SDS011;62918;55.706;37.816;2023-06-05T01:16:00;7.53;;;2.60;;
74469;SDS011;62918;55.706;37.816;2023-06-05T01:16:34;6.22;;;2.63;;
74469;SDS011;62918;55.706;37.816;2023-06-05T01:17:07;5.90;;;2.22;;
74469;SDS011;62918;55.706;37.816;2023-06-05T01:17:40;3.72;;;2.30;;
74469;SDS011;62918;55.706;37.816;2023-06-05T01:18:17;5.15;;;2.35;;
74469;SDS011;62918;55.706;37.816;2023-06-05T01:18:48;5.45;;;2.33;;
74469;SDS011;62918;55.706;37.816;2023-06-05T01:19:22;6.93;;;2.33;;
74469;SDS011;62918;55.706;37.816;2023-06-05T01:19:59;5.80;;;2.42;;
74469;SDS011;62918;55.706;37.816;2023-06-05T01:20:33;5.75;;;2.80;;
74469;SDS011;62918;55.706;37.816;2023-06-05T01:21:04;4.15;;;2.50;;
74469;SDS011;62918;55.706;37.816;2023-06-05T01:21:43;7.90;;;2.22;;
74469;SDS011;62918;55.706;37.816;2023-06-05T01:22:14;4.65;;;2.45;;
74469;SDS011;62918;55.706;37.816;2023-06-05T01:22:47;5.35;;;2.25;;
74469;SDS011;62918;55.706;37.816;2023-06-05T01:23:19;6.60;;;2.10;;
74469;SDS011;62918;55.706;37.816;2023-06-05T01:23:55;4.43;;;2.10;;
74469;SDS011;62918;55.706;37.816;2023-06-05T01:24:26;6.40;;;2.15;;
74469;SDS011;62918;55.706;37.816;2023-06-05T01:24:57;4.18;;;2.42;;
74469;SDS011;62918;55.706;37.816;2023-06-05T01:25:29;4.88;;;2.30;;
74469;SDS011;62918;55.706;37.816;2023-06-05T01:26:00;6.32;;;2.42;;
74469;SDS011;62918;55.706;37.816;2023-06-05T01:26:39;4.63;;;2.40;;
74469;SDS011;62918;55.706;37.816;2023-06-05T01:27:26;3.75;;;2.60;;
74469;SDS011;62918;55.706;37.816;2023-06-05T01:28:08;4.57;;;2.13;;
74469;SDS011;62918;55.706;37.816;2023-06-05T01:28:45;5.03;;;2.72;;
74469;SDS011;62918;55.706;37.816;2023-06-05T01:29:21;5.18;;;2.85;;
74469;SDS011;62918;55.706;37.816;2023-06-05T01:31:18;6.45;;;2.88;;
74469;SDS011;62918;55.706;37.816;2023-06-05T01:31:46;6.78;;;1.85;;
74469;SDS011;62918;55.706;37.816;2023-06-05T01:32:40;4.70;;;2.20;;
74469;SDS011;62918;55.706;37.816;2023-06-05T01:33:19;4.30;;;2.13;;
74469;SDS011;62918;55.706;37.816;2023-06-05T01:34:00;3.97;;;2.38;;
74469;SDS011;62918;55.706;37.816;2023-06-05T01:34:34;5.50;;;2.50;;
74469;SDS011;62918;55.706;37.816;2023-06-05T01:35:07;8.27;;;2.72;;
74469;SDS011;62918;55.706;37.816;2023-06-05T01:35:40;7.13;;;2.47;;
74469;SDS011;62918;55.706;37.816;2023-06-05T01:36:14;4.55;;;2.28;;
74469;SDS011;62918;55.706;37.816;2023-06-05T01:36:46;6.32;;;2.50;;
74469;SDS011;62918;55.706;37.816;2023-06-05T01:37:17;3.67;;;2.22;;
74469;SDS011;62918;55.706;37.816;2023-06-05T01:37:49;4.30;;;2.15;;
74469;SDS011;62918;55.706;37.816;2023-06-05T01:38:20;4.72;;;2.22;;
74469;SDS011;62918;55.706;37.816;2023-06-05T01:38:52;5.38;;;2.15;;
74469;SDS011;62918;55.706;37.816;2023-06-05T01:39:25;6.78;;;2.50;;
74469;SDS011;62918;55.706;37.816;2023-06-05T01:39:57;4.93;;;2.28;;
74469;SDS011;62918;55.706;37.816;2023-06-05T01:40:29;6.35;;;2.47;;
74469;SDS011;62918;55.706;37.816;2023-06-05T01:41:01;5.82;;;2.22;;
74469;SDS011;62918;55.706;37.816;2023-06-05T01:41:33;5.38;;;2.30;;
74469;SDS011;62918;55.706;37.816;2023-06-05T01:42:04;4.55;;;2.28;;
74469;SDS011;62918;55.706;37.816;2023-06-05T01:42:36;7.60;;;2.47;;
74469;SDS011;62918;55.706;37.816;2023-06-05T01:43:39;4.30;;;2.17;;
74469;SDS011;62918;55.706;37.816;2023-06-05T01:44:10;4.97;;;2.58;;
74469;SDS011;62918;55.706;37.816;2023-06-05T01:44:44;5.38;;;2.22;;
74469;SDS011;62918;55.706;37.816;2023-06-05T01:45:15;5.55;;;2.58;;
74469;SDS011;62918;55.706;37.816;2023-06-05T01:45:47;4.80;;;2.00;;
74469;SDS011;62918;55.706;37.816;2023-06-05T01:46:19;4.43;;;2.13;;
74469;SDS011;62918;55.706;37.816;2023-06-05T01:46:51;5.57;;;2.58;;
74469;SDS011;62918;55.706;37.816;2023-06-05T01:47:22;7.20;;;2.65;;
74469;SDS011;62918;55.706;37.816;2023-06-05T01:47:53;7.72;;;2.25;;
74469;SDS011;62918;55.706;37.816;2023-06-05T01:48:27;4.93;;;2.25;;
74469;SDS011;62918;55.706;37.816;2023-06-05T01:48:58;4.38;;;2.35;;
74469;SDS011;62918;55.706;37.816;2023-06-05T01:49:31;4.60;;;2.17;;
74469;SDS011;62918;55.706;37.816;2023-06-05T01:50:02;4.50;;;2.33;;
74469;SDS011;62918;55.706;37.816;2023-06-05T01:50:34;6.30;;;2.42;;
74469;SDS011;62918;55.706;37.816;2023-06-05T01:51:06;4.60;;;2.65;;
74469;SDS011;62918;55.706;37.816;2023-06-05T01:51:36;5.88;;;2.20;;
74469;SDS011;62918;55.706;37.816;2023-06-05T01:52:07;5.95;;;2.33;;
74469;SDS011;62918;55.706;37.816;2023-06-05T01:52:38;3.58;;;2.00;;
74469;SDS011;62918;55.706;37.816;2023-06-05T01:53:09;4.25;;;2.30;;
74469;SDS011;62918;55.706;37.816;2023-06-05T01:53:42;4.32;;;2.22;;
74469;SDS011;62918;55.706;37.816;2023-06-05T01:54:12;13.20;;;2.90;;
74469;SDS011;62918;55.706;37.816;2023-06-05T01:54:45;4.35;;;2.70;;
74469;SDS011;62918;55.706;37.816;2023-06-05T01:55:19;7.65;;;3.80;;
74469;SDS011;62918;55.706;37.816;2023-06-05T01:55:53;8.52;;;2.42;;
74469;SDS011;62918;55.706;37.816;2023-06-05T01:56:27;5.15;;;2.45;;
74469;SDS011;62918;55.706;37.816;2023-06-05T01:57:00;5.35;;;2.40;;
74469;SDS011;62918;55.706;37.816;2023-06-05T01:57:31;7.72;;;2.17;;
74469;SDS011;62918;55.706;37.816;2023-06-05T01:58:03;4.80;;;2.17;;
74469;SDS011;62918;55.706;37.816;2023-06-05T01:58:34;3.28;;;2.42;;
74469;SDS011;62918;55.706;37.816;2023-06-05T01:59:05;5.22;;;2.28;;
74469;SDS011;62918;55.706;37.816;2023-06-05T01:59:37;5.60;;;2.05;;
74469;SDS011;62918;55.706;37.816;2023-06-05T02:00:08;5.60;;;2.30;;
74469;SDS011;62918;55.706;37.816;2023-06-05T02:00:43;8.38;;;2.47;;
74469;SDS011;62918;55.706;37.816;2023-06-05T02:01:15;5.10;;;2.28;;
74469;SDS011;62918;55.706;37.816;2023-06-05T02:01:53;6.30;;;2.83;;
74469;SDS011;62918;55.706;37.816;2023-06-05T02:02:23;7.13;;;2.67;;
74469;SDS011;62918;55.706;37.816;2023-06-05T02:02:54;7.40;;;1.70;;
74469;SDS011;62918;55.706;37.816;2023-06-05T02:03:24;3.90;;;2.45;;
74469;SDS011;62918;55.706;37.816;2023-06-05T02:03:55;5.93;;;2.40;;
74469;SDS011;62918;55.706;37.816;2023-06-05T02:04:27;7.28;;;2.58;;
74469;SDS011;62918;55.706;37.816;2023-06-05T02:04:59;6.25;;;2.85;;
74469;SDS011;62918;55.706;37.816;2023-06-05T02:05:30;8.43;;;2.42;;
74469;SDS011;62918;55.706;37.816;2023-06-05T02:06:00;7.47;;;2.38;;
74469;SDS011;62918;55.706;37.816;2023-06-05T02:06:32;5.50;;;2.20;;
74469;SDS011;62918;55.706;37.816;2023-06-05T02:07:12;6.72;;;2.17;;
74469;SDS011;62918;55.706;37.816;2023-06-05T02:08:28;5.38;;;2.05;;
74469;SDS011;62918;55.706;37.816;2023-06-05T02:08:58;7.65;;;2.05;;
74469;SDS011;62918;55.706;37.816;2023-06-05T02:09:32;5.97;;;2.38;;
74469;SDS011;62918;55.706;37.816;2023-06-05T02:10:03;6.07;;;1.95;;
74469;SDS011;62918;55.706;37.816;2023-06-05T02:11:10;5.18;;;2.35;;
74469;SDS011;62918;55.706;37.816;2023-06-05T02:11:42;4.80;;;2.15;;
74469;SDS011;62918;55.706;37.816;2023-06-05T02:12:13;4.43;;;2.42;;
74469;SDS011;62918;55.706;37.816;2023-06-05T02:12:45;4.97;;;2.10;;
74469;SDS011;62918;55.706;37.816;2023-06-05T02:13:17;5.53;;;1.83;;
74469;SDS011;62918;55.706;37.816;2023-06-05T02:13:50;4.55;;;2.00;;
74469;SDS011;62918;55.706;37.816;2023-06-05T02:14:55;5.50;;;2.10;;
74469;SDS011;62918;55.706;37.816;2023-06-05T02:15:27;3.22;;;1.80;;
74469;SDS011;62918;55.706;37.816;2023-06-05T02:16:30;4.38;;;2.20;;
74469;SDS011;62918;55.706;37.816;2023-06-05T02:17:01;3.20;;;1.88;;
74469;SDS011;62918;55.706;37.816;2023-06-05T02:17:34;6.10;;;2.20;;
74469;SDS011;62918;55.706;37.816;2023-06-05T02:18:07;5.20;;;1.90;;
74469;SDS011;62918;55.706;37.816;2023-06-05T02:18:38;4.07;;;2.08;;
74469;SDS011;62918;55.706;37.816;2023-06-05T02:19:08;5.20;;;2.20;;
74469;SDS011;62918;55.706;37.816;2023-06-05T02:19:39;5.28;;;2.35;;
74469;SDS011;62918;55.706;37.816;2023-06-05T02:20:13;5.32;;;2.53;;
74469;SDS011;62918;55.706;37.816;2023-06-05T02:20:45;4.57;;;2.08;;
74469;SDS011;62918;55.706;37.816;2023-06-05T02:21:54;3.45;;;2.08;;
74469;SDS011;62918;55.706;37.816;2023-06-05T02:22:25;5.72;;;2.10;;
74469;SDS011;62918;55.706;37.816;2023-06-05T02:22:55;3.80;;;1.88;;
74469;SDS011;62918;55.706;37.816;2023-06-05T02:23:27;2.92;;;1.88;;
74469;SDS011;62918;55.706;37.816;2023-06-05T02:23:58;5.20;;;2.13;;
74469;SDS011;62918;55.706;37.816;2023-06-05T02:24:29;4.50;;;1.85;;
74469;SDS011;62918;55.706;37.816;2023-06-05T02:25:00;3.10;;;2.10;;
74469;SDS011;62918;55.706;37.816;2023-06-05T02:25:30;4.75;;;2.03;;
74469;SDS011;62918;55.706;37.816;2023-06-05T02:26:01;4.63;;;2.20;;
74469;SDS011;62918;55.706;37.816;2023-06-05T02:26:32;5.45;;;2.42;;
74469;SDS011;62918;55.706;37.816;2023-06-05T02:27:02;4.32;;;2.22;;
74469;SDS011;62918;55.706;37.816;2023-06-05T02:27:33;4.63;;;2.35;;
74469;SDS011;62918;55.706;37.816;2023-06-05T02:28:04;5.93;;;2.30;;
74469;SDS011;62918;55.706;37.816;2023-06-05T02:28:35;4.35;;;2.05;;
74469;SDS011;62918;55.706;37.816;2023-06-05T02:29:06;4.97;;;2.17;;
74469;SDS011;62918;55.706;37.816;2023-06-05T02:29:36;3.53;;;2.10;;
74469;SDS011;62918;55.706;37.816;2023-06-05T02:30:07;4.00;;;2.30;;
74469;SDS011;62918;55.706;37.816;2023-06-05T02:30:38;5.13;;;2.03;;
74469;SDS011;62918;55.706;37.816;2023-06-05T02:31:09;7.32;;;2.22;;
74469;SDS011;62918;55.706;37.816;2023-06-05T02:31:46;5.50;;;2.08;;
74469;SDS011;62918;55.706;37.816;2023-06-05T02:32:16;4.38;;;1.95;;
74469;SDS011;62918;55.706;37.816;2023-06-05T02:32:50;6.82;;;2.22;;
74469;SDS011;62918;55.706;37.816;2023-06-05T02:33:30;5.30;;;2.20;;
74469;SDS011;62918;55.706;37.816;2023-06-05T02:34:01;4.75;;;2.35;;
74469;SDS011;62918;55.706;37.816;2023-06-05T02:34:32;10.05;;;2.38;;
74469;SDS011;62918;55.706;37.816;2023-06-05T02:35:03;5.07;;;1.95;;
74469;SDS011;62918;55.706;37.816;2023-06-05T02:35:35;4.57;;;2.28;;
74469;SDS011;62918;55.706;37.816;2023-06-05T02:36:06;4.00;;;2.42;;
74469;SDS011;62918;55.706;37.816;2023-06-05T02:36:37;5.80;;;1.90;;
74469;SDS011;62918;55.706;37.816;2023-06-05T02:37:07;6.45;;;2.20;;
74469;SDS011;62918;55.706;37.816;2023-06-05T02:37:39;5.25;;;2.30;;
74469;SDS011;62918;55.706;37.816;2023-06-05T02:38:14;6.70;;;1.70;;
74469;SDS011;62918;55.706;37.816;2023-06-05T02:38:44;5.00;;;2.65;;
74469;SDS011;62918;55.706;37.816;2023-06-05T02:39:15;5.50;;;3.47;;
74469;SDS011;62918;55.706;37.816;2023-06-05T02:39:46;10.18;;;4.57;;
74469;SDS011;62918;55.706;37.816;2023-06-05T02:40:16;8.98;;;5.47;;
74469;SDS011;62918;55.706;37.816;2023-06-05T02:40:47;10.10;;;4.72;;
74469;SDS011;62918;55.706;37.816;2023-06-05T02:41:18;6.03;;;3.40;;
74469;SDS011;62918;55.706;37.816;2023-06-05T02:41:49;10.20;;;4.15;;
74469;SDS011;62918;55.706;37.816;2023-06-05T02:42:20;6.28;;;3.85;;
74469;SDS011;62918;55.706;37.816;2023-06-05T02:42:50;9.00;;;4.10;;
74469;SDS011;62918;55.706;37.816;2023-06-05T02:43:21;4.78;;;2.80;;
74469;SDS011;62918;55.706;37.816;2023-06-05T02:43:53;4.78;;;1.77;;
74469;SDS011;62918;55.706;37.816;2023-06-05T02:44:27;6.13;;;2.83;;
74469;SDS011;62918;55.706;37.816;2023-06-05T02:44:57;4.57;;;2.55;;
74469;SDS011;62918;55.706;37.816;2023-06-05T02:45:28;5.78;;;2.15;;
74469;SDS011;62918;55.706;37.816;2023-06-05T02:45:58;5.38;;;2.30;;
74469;SDS011;62918;55.706;37.816;2023-06-05T02:46:29;3.53;;;2.13;;
74469;SDS011;62918;55.706;37.816;2023-06-05T02:47:00;5.25;;;3.03;;
74469;SDS011;62918;55.706;37.816;2023-06-05T02:47:30;6.18;;;2.70;;
74469;SDS011;62918;55.706;37.816;2023-06-05T02:48:01;4.97;;;2.63;;
74469;SDS011;62918;55.706;37.816;2023-06-05T02:48:32;9.85;;;2.72;;
74469;SDS011;62918;55.706;37.816;2023-06-05T02:49:03;6.57;;;2.63;;
74469;SDS011;62918;55.706;37.816;2023-06-05T02:49:33;5.35;;;2.50;;
74469;SDS011;62918;55.706;37.816;2023-06-05T02:50:06;4.93;;;2.28;;
74469;SDS011;62918;55.706;37.816;2023-06-05T02:50:38;6.40;;;2.53;;
74469;SDS011;62918;55.706;37.816;2023-06-05T02:51:08;4.03;;;2.00;;
74469;SDS011;62918;55.706;37.816;2023-06-05T02:51:40;5.75;;;1.98;;
74469;SDS011;62918;55.706;37.816;2023-06-05T02:52:14;6.22;;;2.20;;
74469;SDS011;62918;55.706;37.816;2023-06-05T02:53:03;5.93;;;2.15;;
74469;SDS011;62918;55.706;37.816;2023-06-05T02:53:34;6.75;;;1.85;;
74469;SDS011;62918;55.706;37.816;2023-06-05T02:54:04;7.80;;;2.20;;
74469;SDS011;62918;55.706;37.816;2023-06-05T02:54:35;3.83;;;2.38;;
74469;SDS011;62918;55.706;37.816;2023-06-05T02:55:06;5.47;;;2.45;;
74469;SDS011;62918;55.706;37.816;2023-06-05T02:55:37;5.22;;;2.03;;
74469;SDS011;62918;55.706;37.816;2023-06-05T02:56:10;6.18;;;2.45;;
74469;SDS011;62918;55.706;37.816;2023-06-05T02:56:43;6.35;;;2.50;;
74469;SDS011;62918;55.706;37.816;2023-06-05T02:57:14;7.00;;;2.08;;
74469;SDS011;62918;55.706;37.816;2023-06-05T02:57:45;5.25;;;2.40;;
74469;SDS011;62918;55.706;37.816;2023-06-05T02:58:18;7.05;;;2.08;;
74469;SDS011;62918;55.706;37.816;2023-06-05T02:58:49;5.35;;;1.90;;
74469;SDS011;62918;55.706;37.816;2023-06-05T02:59:21;3.65;;;1.58;;
74469;SDS011;62918;55.706;37.816;2023-06-05T02:59:54;3.33;;;1.98;;
74469;SDS011;62918;55.706;37.816;2023-06-05T03:00:25;4.72;;;2.20;;
74469;SDS011;62918;55.706;37.816;2023-06-05T03:00:56;6.32;;;1.85;;
74469;SDS011;62918;55.706;37.816;2023-06-05T03:01:31;5.55;;;2.67;;
74469;SDS011;62918;55.706;37.816;2023-06-05T03:02:07;7.03;;;2.28;;
74469;SDS011;62918;55.706;37.816;2023-06-05T03:02:38;5.63;;;1.60;;
74469;SDS011;62918;55.706;37.816;2023-06-05T03:03:10;7.65;;;2.15;;
74469;SDS011;62918;55.706;37.816;2023-06-05T03:03:41;8.30;;;2.33;;
74469;SDS011;62918;55.706;37.816;2023-06-05T03:04:12;7.07;;;2.25;;
74469;SDS011;62918;55.706;37.816;2023-06-05T03:04:43;4.13;;;2.28;;
74469;SDS011;62918;55.706;37.816;2023-06-05T03:05:14;7.50;;;1.60;;
74469;SDS011;62918;55.706;37.816;2023-06-05T03:05:45;6.68;;;2.47;;
74469;SDS011;62918;55.706;37.816;2023-06-05T03:06:15;7.60;;;2.65;;
74469;SDS011;62918;55.706;37.816;2023-06-05T03:06:47;6.53;;;2.35;;
74469;SDS011;62918;55.706;37.816;2023-06-05T03:07:19;3.75;;;2.55;;
74469;SDS011;62918;55.706;37.816;2023-06-05T03:07:50;6.50;;;2.17;;
74469;SDS011;62918;55.706;37.816;2023-06-05T03:08:23;5.40;;;2.40;;
74469;SDS011;62918;55.706;37.816;2023-06-05T03:08:54;6.18;;;2.95;;
74469;SDS011;62918;55.706;37.816;2023-06-05T03:09:26;7.60;;;2.30;;
74469;SDS011;62918;55.706;37.816;2023-06-05T03:09:56;3.88;;;2.72;;
74469;SDS011;62918;55.706;37.816;2023-06-05T03:10:27;6.32;;;2.60;;
74469;SDS011;62918;55.706;37.816;2023-06-05T03:10:58;3.83;;;2.03;;
74469;SDS011;62918;55.706;37.816;2023-06-05T03:11:30;5.30;;;2.45;;
74469;SDS011;62918;55.706;37.816;2023-06-05T03:12:00;8.23;;;2.35;;
74469;SDS011;62918;55.706;37.816;2023-06-05T03:12:32;4.43;;;2.10;;
74469;SDS011;62918;55.706;37.816;2023-06-05T03:13:02;5.78;;;2.13;;
74469;SDS011;62918;55.706;37.816;2023-06-05T03:13:33;4.20;;;2.40;;
74469;SDS011;62918;55.706;37.816;2023-06-05T03:14:03;4.93;;;2.10;;
74469;SDS011;62918;55.706;37.816;2023-06-05T03:14:35;6.45;;;2.25;;
74469;SDS011;62918;55.706;37.816;2023-06-05T03:15:05;4.75;;;1.98;;
74469;SDS011;62918;55.706;37.816;2023-06-05T03:15:37;5.07;;;1.80;;
74469;SDS011;62918;55.706;37.816;2023-06-05T03:16:08;4.13;;;1.95;;
74469;SDS011;62918;55.706;37.816;2023-06-05T03:16:40;4.00;;;2.38;;
74469;SDS011;62918;55.706;37.816;2023-06-05T03:17:14;6.22;;;2.22;;